Time;durP1;ratioP1;P1;durP2;ratioP2;P2;SDS_P1;SDS_P2;PMS_P1;PMS_P2;Temp;Humidity;BMP_temperature;BMP_pressure;BME280_temperature;BME280_humidity;BME280_pressure;Samples;Min_cycle;Max_cycle;Signal;HPM_P1;HPM_P2
2024/01/11 00:01:47;;;;;;;3.43;3.23;;;-5.10;99.90;;;;;;5158967;27;20044;-75
2024/01/11 00:04:13;;;;;;;4.28;3.88;;;-5.10;99.90;;;;;;5158502;27;20043;-76
2024/01/11 00:06:43;;;;;;;1.77;1.67;;;-5.20;99.90;;;;;;5158466;27;20103;-75
2024/01/11 00:09:08;;;;;;;2.15;2.03;;;-5.10;99.90;;;;;;5158623;27;20074;-75
2024/01/11 00:11:34;;;;;;;1.90;1.80;;;-5.10;99.90;;;;;;5158052;27;20078;-75
2024/01/11 00:13:59;;;;;;;1.95;1.80;;;-5.10;99.90;;;;;;5158236;27;20081;-75
2024/01/11 00:16:26;;;;;;;1.90;1.80;;;-5.30;99.90;;;;;;5158759;27;20042;-75
2024/01/11 00:18:51;;;;;;;1.80;1.70;;;-5.10;99.90;;;;;;5158187;27;20046;-76
2024/01/11 00:21:17;;;;;;;1.70;1.60;;;-5.40;99.90;;;;;;5139524;27;20379;-76
2024/01/11 00:23:43;;;;;;;1.83;1.73;;;-5.10;99.90;;;;;;5158149;27;20047;-75
2024/01/11 00:26:14;;;;;;;1.70;1.60;;;-5.20;99.90;;;;;;5157911;27;20046;-75
2024/01/11 00:28:39;;;;;;;1.70;1.60;;;-4.90;99.90;;;;;;5157697;27;20050;-76
2024/01/11 00:31:05;;;;;;;1.80;1.70;;;-5.20;99.90;;;;;;5157941;27;20043;-75
2024/01/11 00:33:31;;;;;;;1.80;1.70;;;-5.30;99.90;;;;;;5157721;27;20458;-75
2024/01/11 00:35:56;;;;;;;1.83;1.73;;;-5.20;99.90;;;;;;5157624;27;20043;-75
2024/01/11 00:38:22;;;;;;;1.90;1.80;;;-5.20;99.90;;;;;;5157857;27;20057;-76
2024/01/11 00:40:49;;;;;;;1.80;1.70;;;;;;;;;;5157778;27;20035;-76
2024/01/11 00:43:14;;;;;;;1.80;1.70;;;-5.30;99.90;;;;;;5157650;27;20050;-76
2024/01/11 00:45:40;;;;;;;1.90;1.80;;;-5.50;99.90;;;;;;5157885;27;20038;-76
2024/01/11 00:48:06;;;;;;;1.90;1.80;;;-5.30;99.90;;;;;;5139573;27;20062;-75
2024/01/11 00:50:31;;;;;;;1.80;1.70;;;-5.30;99.90;;;;;;5157233;27;20054;-75
2024/01/11 00:52:57;;;;;;;1.90;1.80;;;-5.30;99.90;;;;;;5157547;27;20038;-76
2024/01/11 00:55:24;;;;;;;1.70;1.60;;;-5.30;99.90;;;;;;5157685;27;20170;-76
2024/01/11 00:57:50;;;;;;;;;;;-5.40;99.90;;;;;;5157833;27;20054;-76
2024/01/11 01:00:16;;;;;;;2.00;1.90;;;-5.80;99.90;;;;;;5156885;27;19919;-76
2024/01/11 01:02:42;;;;;;;1.90;1.80;;;-5.30;99.90;;;;;;5157357;27;20394;-76
2024/01/11 01:05:08;;;;;;;1.90;1.80;;;-5.40;99.90;;;;;;5157632;27;20082;-76
2024/01/11 01:07:33;;;;;;;1.95;1.85;;;-5.30;99.90;;;;;;5157272;27;20049;-76
2024/01/11 01:09:59;;;;;;;1.97;1.87;;;-5.40;99.90;;;;;;5156937;27;20043;-75
2024/01/11 01:12:25;;;;;;;1.83;1.73;;;-5.40;99.90;;;;;;5157108;27;20462;-76
2024/01/11 01:14:51;;;;;;;1.70;1.60;;;-5.40;99.90;;;;;;5157208;27;20130;-76
2024/01/11 01:17:17;;;;;;;1.70;1.60;;;-5.40;99.90;;;;;;5157580;27;20047;-76
2024/01/11 01:19:43;;;;;;;1.77;1.67;;;-5.40;99.90;;;;;;5157433;27;20409;-75
2024/01/11 01:22:08;;;;;;;1.80;1.70;;;-5.50;99.90;;;;;;5156932;27;20045;-76
2024/01/11 01:24:34;;;;;;;1.90;1.80;;;-5.50;99.90;;;;;;5157159;27;20051;-76
2024/01/11 01:27:00;;;;;;;2.20;2.00;;;;;;;;;;5138291;27;20594;-76
2024/01/11 01:29:26;;;;;;;2.00;1.90;;;-5.50;99.90;;;;;;5156822;27;20130;-75
2024/01/11 01:31:52;;;;;;;2.00;1.90;;;-5.50;99.90;;;;;;5156697;27;20129;-76
2024/01/11 01:34:18;;;;;;;1.90;1.80;;;-5.50;99.90;;;;;;5156791;27;20395;-76
2024/01/11 01:36:44;;;;;;;1.90;1.80;;;-5.50;99.90;;;;;;5156651;27;20041;-76
2024/01/11 01:39:09;;;;;;;1.80;1.70;;;-5.60;99.90;;;;;;5138426;27;20466;-76
2024/01/11 01:41:35;;;;;;;2.10;2.00;;;-5.30;99.90;;;;;;5156629;27;20042;-75
2024/01/11 01:44:01;;;;;;;1.80;1.70;;;-5.60;99.90;;;;;;5156481;27;20442;-74
2024/01/11 01:46:28;;;;;;;1.90;1.80;;;-5.60;99.90;;;;;;5156703;27;20469;-76
2024/01/11 01:48:54;;;;;;;;;;;-5.60;99.90;;;;;;5156714;27;20059;-75
2024/01/11 01:51:20;;;;;;;1.80;1.70;;;-5.60;99.90;;;;;;5156538;27;19925;-75
2024/01/11 01:53:47;;;;;;;2.03;1.92;;;-6.00;99.90;;;;;;5156142;27;20053;-75
2024/01/11 01:56:13;;;;;;;1.83;1.73;;;-5.70;99.90;;;;;;5156294;27;20047;-74
2024/01/11 01:58:38;;;;;;;2.40;2.20;;;-5.60;99.90;;;;;;5156184;27;20046;-75
2024/01/11 02:01:04;;;;;;;2.20;2.10;;;-5.30;99.90;;;;;;5156171;27;20110;-75
2024/01/11 02:03:31;;;;;;;2.10;2.00;;;-5.70;99.90;;;;;;5137726;27;20054;-75
2024/01/11 02:05:57;;;;;;;;;;;-5.70;99.90;;;;;;5156492;27;20039;-74
2024/01/11 02:08:23;;;;;;;1.83;1.73;;;-5.70;99.90;;;;;;5155793;27;19945;-75
2024/01/11 02:10:49;;;;;;;2.10;2.00;;;-5.70;99.90;;;;;;5155328;27;20502;-74
2024/01/11 02:13:15;;;;;;;1.93;1.83;;;-5.80;99.90;;;;;;5155719;27;20081;-76
2024/01/11 02:15:41;;;;;;;2.35;2.13;;;-6.30;99.90;;;;;;5155911;27;20039;-74
2024/01/11 02:18:07;;;;;;;2.00;1.90;;;-5.80;99.90;;;;;;5155634;27;20043;-76
2024/01/11 02:20:32;;;;;;;1.90;1.80;;;-5.80;99.90;;;;;;5155782;27;20038;-75
2024/01/11 02:23:05;;;;;;;2.00;1.90;;;-5.80;99.90;;;;;;5155645;27;20039;-75
2024/01/11 02:25:30;;;;;;;1.70;1.60;;;-5.80;99.90;;;;;;5155776;27;20125;-75
2024/01/11 02:27:56;;;;;;;1.90;1.80;;;-5.90;99.90;;;;;;5136902;27;20125;-76
2024/01/11 02:30:22;;;;;;;1.80;1.70;;;-5.80;99.90;;;;;;5155680;27;20521;-76
2024/01/11 02:32:48;;;;;;;1.80;1.70;;;-6.40;99.90;;;;;;5155940;27;20081;-75
2024/01/11 02:35:18;;;;;;;1.90;1.80;;;-5.90;99.90;;;;;;5155901;27;20406;-75
2024/01/11 02:37:45;;;;;;;1.75;1.65;;;-5.90;99.90;;;;;;5155538;27;20052;-75
2024/01/11 02:40:12;;;;;;;;;;;-5.90;99.90;;;;;;5155936;27;20035;-76
2024/01/11 02:42:38;;;;;;;1.67;1.58;;;-5.90;99.90;;;;;;5155432;27;19979;-75
2024/01/11 02:45:04;;;;;;;1.77;1.67;;;-5.90;99.90;;;;;;5155506;27;20043;-75
2024/01/11 02:47:30;;;;;;;1.70;1.60;;;-5.90;99.90;;;;;;5155479;27;20039;-75
2024/01/11 02:49:56;;;;;;;1.90;1.80;;;-5.90;99.90;;;;;;5155114;27;20374;-75
2024/01/11 02:52:23;;;;;;;1.80;1.70;;;-6.30;99.90;;;;;;5155314;27;20050;-76
2024/01/11 02:54:49;;;;;;;1.90;1.80;;;-6.00;99.90;;;;;;5137042;27;20073;-76
2024/01/11 02:57:14;;;;;;;1.80;1.70;;;-5.90;99.90;;;;;;5155262;27;20070;-75
2024/01/11 02:59:40;;;;;;;1.80;1.70;;;-6.30;99.90;;;;;;5155285;27;20039;-76
2024/01/11 03:02:06;;;;;;;1.80;1.70;;;-6.20;99.90;;;;;;5137087;27;20051;-75
2024/01/11 03:04:32;;;;;;;1.90;1.80;;;-6.00;99.90;;;;;;5155215;27;20046;-75
2024/01/11 03:06:57;;;;;;;1.90;1.80;;;-6.00;99.90;;;;;;5154973;27;20043;-75
2024/01/11 03:09:23;;;;;;;1.73;1.63;;;-6.00;99.90;;;;;;5155233;27;20042;-75
2024/01/11 03:11:48;;;;;;;1.80;1.70;;;-6.00;99.90;;;;;;5154966;27;20504;-75
2024/01/11 03:14:14;;;;;;;15.63;8.20;;;-6.20;99.90;;;;;;5155795;27;20049;-75
2024/01/11 03:16:40;;;;;;;2.23;2.03;;;-4.70;99.90;;;;;;5155052;27;20466;-76
2024/01/11 03:19:06;;;;;;;1.80;1.70;;;-6.60;99.90;;;;;;5155102;27;20129;-76
2024/01/11 03:21:32;;;;;;;7.13;6.65;;;-6.00;99.90;;;;;;5155251;27;20065;-75
2024/01/11 03:23:57;;;;;;;6.83;3.20;;;-6.00;99.90;;;;;;5158593;27;20474;-75
2024/01/11 03:26:23;;;;;;;3.00;2.80;;;-6.00;99.90;;;;;;5158921;27;20118;-76
2024/01/11 03:28:49;;;;;;;1.93;1.83;;;-6.40;99.90;;;;;;5159246;27;20500;-76
2024/01/11 03:31:14;;;;;;;1.90;1.80;;;-6.10;99.90;;;;;;5140747;27;20114;-76
2024/01/11 03:33:40;;;;;;;1.90;1.80;;;-6.10;99.90;;;;;;5159426;27;20130;-75
2024/01/11 03:36:10;;;;;;;1.90;1.80;;;-6.00;99.90;;;;;;5159215;27;20111;-75
2024/01/11 03:38:36;;;;;;;1.80;1.70;;;-6.10;99.90;;;;;;5158856;27;20089;-75
2024/01/11 03:41:06;;;;;;;1.80;1.70;;;-6.10;99.90;;;;;;5158833;27;20070;-76
2024/01/11 03:43:32;;;;;;;1.85;1.75;;;-6.20;99.90;;;;;;5158918;27;20059;-76
2024/01/11 03:45:57;;;;;;;1.90;1.80;;;-6.20;99.90;;;;;;5159217;27;20375;-76
2024/01/11 03:48:23;;;;;;;1.90;1.80;;;-6.10;99.90;;;;;;5140269;27;20038;-75
2024/01/11 03:50:49;;;;;;;1.83;1.73;;;-6.10;99.90;;;;;;5158899;27;20063;-75
2024/01/11 03:53:14;;;;;;;1.80;1.70;;;-6.10;99.90;;;;;;5158689;27;20042;-75
2024/01/11 03:55:40;;;;;;;1.70;1.60;;;-6.10;99.90;;;;;;5158542;27;20038;-76
2024/01/11 03:58:05;;;;;;;2.10;1.90;;;-6.10;99.90;;;;;;5158556;27;20126;-75
2024/01/11 04:00:33;;;;;;;2.00;1.90;;;-6.10;99.90;;;;;;5158644;27;20043;-75
2024/01/11 04:02:58;;;;;;;1.70;1.60;;;-6.10;99.90;;;;;;5159180;27;20043;-75
2024/01/11 04:05:24;;;;;;;15.00;13.77;;;-6.10;99.90;;;;;;5158395;27;20050;-75
2024/01/11 04:07:49;;;;;;;1.80;1.70;;;-6.10;99.90;;;;;;5140107;27;20035;-75
2024/01/11 04:10:17;;;;;;;1.90;1.80;;;-6.10;99.90;;;;;;5158317;27;20458;-75
2024/01/11 04:12:43;;;;;;;1.90;1.80;;;-6.10;99.90;;;;;;5158336;27;20460;-75
2024/01/11 04:15:11;;;;;;;2.10;1.90;;;-6.20;99.90;;;;;;5158758;27;20127;-75
2024/01/11 04:17:38;;;;;;;1.75;1.65;;;-6.10;99.90;;;;;;5158496;27;20393;-76
2024/01/11 04:20:05;;;;;;;1.98;1.88;;;-6.10;99.90;;;;;;5158124;27;20038;-76
2024/01/11 04:22:30;;;;;;;2.20;1.80;;;-6.10;99.90;;;;;;5158144;27;20050;-75
2024/01/11 04:24:56;;;;;;;1.80;1.70;;;-6.20;99.90;;;;;;5139533;27;20039;-75
2024/01/11 04:27:21;;;;;;;2.00;1.90;;;-5.70;99.90;;;;;;5158312;27;20079;-75
2024/01/11 04:29:47;;;;;;;1.80;1.70;;;-6.20;99.90;;;;;;5140079;27;20090;-76
2024/01/11 04:32:13;;;;;;;1.90;1.80;;;-6.20;99.90;;;;;;5158293;27;20047;-75
2024/01/11 04:34:38;;;;;;;1.70;1.60;;;-6.20;99.90;;;;;;5157136;27;20045;-75
2024/01/11 04:37:04;;;;;;;1.90;1.80;;;-6.20;99.90;;;;;;5157291;27;20394;-75
2024/01/11 04:39:30;;;;;;;1.80;1.70;;;-6.20;99.90;;;;;;5157806;27;20051;-76
2024/01/11 04:41:56;;;;;;;1.85;1.75;;;-6.10;99.90;;;;;;5158008;27;20038;-75
2024/01/11 04:44:22;;;;;;;2.23;2.13;;;-6.20;99.90;;;;;;5157761;27;20043;-75
2024/01/11 04:46:47;;;;;;;1.90;1.80;;;-6.20;99.90;;;;;;5157686;27;20046;-75
2024/01/11 04:49:13;;;;;;;2.00;1.90;;;-6.40;99.90;;;;;;5138859;27;20505;-76
2024/01/11 04:51:38;;;;;;;1.80;1.70;;;-6.30;99.90;;;;;;5139084;27;20053;-76
2024/01/11 04:54:04;;;;;;;1.80;1.70;;;-6.30;99.90;;;;;;5157454;27;20091;-76
2024/01/11 04:56:30;;;;;;;1.80;1.70;;;-6.30;99.90;;;;;;5157791;27;20050;-76
2024/01/11 04:58:55;;;;;;;1.87;1.77;;;-6.30;99.90;;;;;;5139282;27;20371;-75
2024/01/11 05:01:21;;;;;;;1.90;1.80;;;-6.30;99.90;;;;;;5157467;27;20046;-76
2024/01/11 05:03:47;;;;;;;1.90;1.80;;;-6.50;99.90;;;;;;5157336;27;20038;-75
2024/01/11 05:06:16;;;;;;;1.80;1.70;;;-6.30;99.90;;;;;;5139223;27;20501;-75
2024/01/11 05:08:43;;;;;;;1.80;1.70;;;-6.40;99.90;;;;;;5157182;27;20123;-75
2024/01/11 05:11:18;;;;;;;1.80;1.70;;;-6.40;99.90;;;;;;5157639;27;20046;-75
2024/01/11 05:13:47;;;;;;;1.70;1.60;;;-6.40;99.90;;;;;;5157575;27;20043;-75
2024/01/11 05:16:27;;;;;;;7.30;6.85;;;-6.40;99.90;;;;;;5138600;27;20046;-75
2024/01/11 05:18:57;;;;;;;1.80;1.70;;;-6.40;99.90;;;;;;5157346;27;20042;-75
2024/01/11 05:21:24;;;;;;;1.70;1.60;;;-6.50;99.90;;;;;;5157225;27;20148;-76
2024/01/11 05:23:50;;;;;;;;;;;-6.50;99.90;;;;;;5157339;27;20035;-76
2024/01/11 05:26:17;;;;;;;1.80;1.70;;;-6.50;99.90;;;;;;5156838;27;19919;-75
2024/01/11 05:28:42;;;;;;;1.70;1.60;;;-6.50;99.90;;;;;;5156869;27;20103;-75
2024/01/11 05:31:14;;;;;;;1.90;1.80;;;-6.50;99.90;;;;;;5156724;27;20039;-75
2024/01/11 05:33:41;;;;;;;1.80;1.70;;;;;;;;;;5156703;27;20082;-75
2024/01/11 05:36:07;;;;;;;1.80;1.70;;;-6.50;99.90;;;;;;5156596;27;20472;-76
2024/01/11 05:38:33;;;;;;;1.90;1.80;;;-6.50;99.90;;;;;;5156651;27;20050;-75
2024/01/11 05:40:58;;;;;;;2.00;1.90;;;-6.90;99.90;;;;;;5156929;27;20276;-75
2024/01/11 05:43:24;;;;;;;1.87;1.77;;;-6.50;99.90;;;;;;5156562;27;20034;-75
2024/01/11 05:45:50;;;;;;;1.90;1.80;;;-7.90;99.90;;;;;;5156411;27;20049;-76
2024/01/11 05:48:16;;;;;;;1.90;1.80;;;-4.70;99.90;;;;;;5156497;27;20035;-76
2024/01/11 05:50:43;;;;;;;1.90;1.80;;;-6.40;99.90;;;;;;5156384;27;20054;-75
2024/01/11 05:53:08;;;;;;;1.90;1.80;;;-6.30;99.90;;;;;;5156336;27;20039;-76
2024/01/11 05:55:34;;;;;;;1.80;1.70;;;-6.80;99.90;;;;;;5156406;27;20130;-76
2024/01/11 05:58:01;;;;;;;1.90;1.80;;;-6.30;99.90;;;;;;5156476;27;20115;-76
2024/01/11 06:00:26;;;;;;;2.10;1.90;;;-6.20;99.90;;;;;;5156272;27;20051;-75
2024/01/11 06:02:52;;;;;;;2.27;2.17;;;-6.50;99.90;;;;;;5156177;27;20371;-75
2024/01/11 06:05:17;;;;;;;1.70;1.60;;;-6.00;99.90;;;;;;5156072;27;20210;-75
2024/01/11 06:07:43;;;;;;;1.80;1.70;;;-5.80;99.90;;;;;;5156034;27;20042;-76
2024/01/11 06:10:09;;;;;;;1.80;1.70;;;-4.60;99.90;;;;;;5155901;27;20444;-76
2024/01/11 06:12:35;;;;;;;1.80;1.70;;;-5.80;99.90;;;;;;5156033;27;20129;-76
2024/01/11 06:15:01;;;;;;;1.90;1.80;;;-5.70;99.90;;;;;;5155942;27;20394;-75
2024/01/11 06:17:27;;;;;;;1.90;1.80;;;-6.00;99.90;;;;;;5155947;27;20288;-76
2024/01/11 06:19:52;;;;;;;1.80;1.70;;;-5.60;99.90;;;;;;5155781;27;20288;-76
2024/01/11 06:22:18;;;;;;;10.70;10.03;;;-5.50;99.90;;;;;;5155877;27;20535;-76
2024/01/11 06:24:44;;;;;;;2.00;1.90;;;-5.70;99.90;;;;;;5155783;27;20065;-76
2024/01/11 06:27:09;;;;;;;1.70;1.60;;;-5.30;99.90;;;;;;5137303;27;20039;-76
2024/01/11 06:29:35;;;;;;;1.80;1.70;;;-5.00;99.90;;;;;;5155680;27;20039;-76
2024/01/11 06:32:02;;;;;;;1.80;1.70;;;-5.10;99.90;;;;;;5155630;27;20122;-76
2024/01/11 06:34:28;;;;;;;1.80;1.70;;;-5.10;99.90;;;;;;5155608;27;20042;-76
2024/01/11 06:36:54;;;;;;;1.80;1.70;;;-5.00;99.90;;;;;;5155580;27;20405;-76
2024/01/11 06:39:19;;;;;;;1.98;1.88;;;-4.90;99.90;;;;;;5155507;27;20340;-76
2024/01/11 06:41:45;;;;;;;1.60;1.50;;;-4.80;99.90;;;;;;5155493;27;20035;-76
2024/01/11 06:44:11;;;;;;;1.63;1.53;;;-4.80;99.90;;;;;;5155496;27;20042;-76
2024/01/11 06:46:39;;;;;;;1.60;1.50;;;-4.70;99.90;;;;;;5155469;27;20096;-76
2024/01/11 06:49:04;;;;;;;1.60;1.50;;;-4.70;99.90;;;;;;5154970;27;20054;-76
2024/01/11 06:51:30;;;;;;;1.60;1.50;;;-4.20;99.90;;;;;;5154840;27;20049;-76
2024/01/11 06:53:56;;;;;;;1.70;1.60;;;-4.50;99.90;;;;;;5137493;27;20042;-76
2024/01/11 06:56:21;;;;;;;31.23;20.87;;;-4.50;99.90;;;;;;5155365;27;20064;-76
2024/01/11 06:58:47;;;;;;;1.70;1.60;;;-4.50;99.90;;;;;;5154997;27;20045;-76
2024/01/11 07:01:13;;;;;;;1.50;1.40;;;-4.60;99.90;;;;;;5155421;27;20046;-76
2024/01/11 07:03:39;;;;;;;1.60;1.50;;;-4.40;99.90;;;;;;5155376;27;20129;-76
2024/01/11 07:06:05;;;;;;;1.70;1.60;;;-4.60;99.90;;;;;;5155738;27;20046;-78
2024/01/11 07:08:32;;;;;;;1.70;1.60;;;-4.20;99.90;;;;;;5155382;27;20367;-79
2024/01/11 07:11:00;;;;;;;1.60;1.50;;;-4.10;99.90;;;;;;5155240;27;20085;-75
2024/01/11 07:13:26;;;;;;;1.60;1.50;;;-4.20;99.90;;;;;;5154984;27;20499;-77
2024/01/11 07:15:52;;;;;;;2.22;2.13;;;-4.10;99.90;;;;;;5155122;27;20043;-80
2024/01/11 07:18:18;;;;;;;1.60;1.50;;;;;;;;;;5155083;27;20172;-77
2024/01/11 07:20:44;;;;;;;1.70;1.60;;;-4.00;99.90;;;;;;5155062;27;20043;-79
2024/01/11 07:23:10;;;;;;;1.50;1.40;;;-3.90;99.90;;;;;;5137422;27;20050;-78
2024/01/11 07:25:35;;;;;;;1.60;1.50;;;-3.90;99.90;;;;;;5155021;27;20407;-77
2024/01/11 07:28:01;;;;;;;1.60;1.50;;;-4.00;99.90;;;;;;5155053;27;20041;-78
2024/01/11 07:30:27;;;;;;;1.70;1.60;;;-3.70;99.90;;;;;;5154956;27;20363;-79
2024/01/11 07:32:52;;;;;;;1.50;1.40;;;-4.50;99.90;;;;;;5154926;27;20042;-78
2024/01/11 07:35:18;;;;;;;1.60;1.50;;;-3.90;99.90;;;;;;5136717;27;20042;-77
2024/01/11 07:37:44;;;;;;;1.58;1.48;;;-3.80;99.90;;;;;;5155008;27;20543;-79
2024/01/11 07:40:10;;;;;;;1.50;1.40;;;-3.80;99.90;;;;;;5155281;27;20141;-78
2024/01/11 07:42:38;;;;;;;1.80;1.70;;;-3.80;99.90;;;;;;5154809;27;20050;-79
2024/01/11 07:45:05;;;;;;;1.60;1.50;;;-3.80;99.90;;;;;;5154815;27;20039;-77
2024/01/11 07:47:31;;;;;;;1.60;1.50;;;-3.80;99.90;;;;;;5154636;27;20058;-77
2024/01/11 07:49:57;;;;;;;1.50;1.40;;;-3.70;99.90;;;;;;5135771;27;20085;-79
2024/01/11 07:52:22;;;;;;;1.75;1.65;;;-3.70;99.90;;;;;;5154717;27;20447;-81
2024/01/11 07:54:48;;;;;;;1.50;1.40;;;-3.70;99.90;;;;;;5154747;27;20091;-80
2024/01/11 07:57:13;;;;;;;1.60;1.50;;;-3.70;99.90;;;;;;5154634;27;20122;-76
2024/01/11 07:59:39;;;;;;;1.67;1.58;;;-3.70;99.90;;;;;;5154697;27;20117;-76
2024/01/11 08:02:06;;;;;;;1.63;1.53;;;-3.60;99.90;;;;;;5154440;27;20038;-77
2024/01/11 08:04:32;;;;;;;2.15;1.73;;;-3.60;99.90;;;;;;5154618;27;20123;-77
2024/01/11 08:07:01;;;;;;;1.80;1.70;;;-3.50;99.90;;;;;;5154418;27;20074;-77
2024/01/11 08:09:27;;;;;;;1.70;1.60;;;-2.00;99.90;;;;;;5155417;27;20122;-77
2024/01/11 08:11:54;;;;;;;1.50;1.40;;;-3.40;99.90;;;;;;5140001;27;20050;-79
2024/01/11 08:14:20;;;;;;;2.97;2.78;;;-3.40;99.90;;;;;;5158497;27;20045;-77
2024/01/11 08:16:46;;;;;;;1.50;1.40;;;-3.40;99.90;;;;;;5158292;27;20046;-76
2024/01/11 08:19:13;;;;;;;1.70;1.60;;;-3.30;99.90;;;;;;5158271;27;20057;-77
2024/01/11 08:21:39;;;;;;;1.50;1.40;;;-3.40;99.90;;;;;;5158088;27;20478;-76
2024/01/11 08:24:06;;;;;;;1.70;1.60;;;-3.40;99.90;;;;;;5158147;27;20038;-76
2024/01/11 08:26:32;;;;;;;1.80;1.70;;;-3.30;99.90;;;;;;5158064;27;20122;-77
2024/01/11 08:28:57;;;;;;;4.40;4.07;;;-3.30;99.90;;;;;;5158051;27;20039;-76
2024/01/11 08:31:23;;;;;;;1.50;1.40;;;-3.30;99.90;;;;;;5157571;27;20095;-77
2024/01/11 08:33:49;;;;;;;1.50;1.40;;;-3.20;99.90;;;;;;5157905;27;20082;-77
2024/01/11 08:36:15;;;;;;;1.85;1.50;;;-3.20;99.90;;;;;;5158356;27;20125;-77
2024/01/11 08:38:41;;;;;;;1.60;1.50;;;-2.10;99.90;;;;;;5158258;27;20074;-77
2024/01/11 08:41:06;;;;;;;1.85;1.73;;;-3.20;99.90;;;;;;5157846;27;20478;-77
2024/01/11 08:43:32;;;;;;;1.60;1.50;;;-3.10;99.90;;;;;;5157850;27;20478;-77
2024/01/11 08:45:58;;;;;;;1.70;1.60;;;-3.10;99.90;;;;;;5157911;27;20094;-77
2024/01/11 08:48:24;;;;;;;1.67;1.58;;;-3.10;99.90;;;;;;5157412;27;20043;-77
2024/01/11 08:50:49;;;;;;;1.50;1.40;;;-3.00;99.90;;;;;;5157935;27;20035;-77
2024/01/11 08:53:18;;;;;;;2.17;1.98;;;-3.00;99.90;;;;;;5157372;27;20126;-77
2024/01/11 08:55:44;;;;;;;1.60;1.50;;;-2.90;99.90;;;;;;5157929;27;20367;-77
2024/01/11 08:58:10;;;;;;;1.60;1.50;;;-2.90;99.90;;;;;;5157579;27;20130;-77
2024/01/11 09:00:39;;;;;;;1.50;1.40;;;-2.80;99.90;;;;;;5157296;27;20457;-77
2024/01/11 09:03:05;;;;;;;1.60;1.50;;;-2.80;99.90;;;;;;5157297;27;20039;-77
2024/01/11 09:05:31;;;;;;;1.70;1.60;;;-2.80;99.90;;;;;;5157825;27;20045;-77
2024/01/11 09:07:57;;;;;;;1.60;1.50;;;-2.70;99.90;;;;;;5157325;27;20043;-77
2024/01/11 09:10:22;;;;;;;1.60;1.50;;;-2.70;99.90;;;;;;5157190;27;20087;-77
2024/01/11 09:12:48;;;;;;;1.55;1.45;;;-2.60;99.90;;;;;;5157670;27;20505;-77
2024/01/11 09:15:14;;;;;;;1.50;1.40;;;-2.60;99.90;;;;;;5157434;27;20114;-77
2024/01/11 09:17:40;;;;;;;1.60;1.50;;;-2.50;99.90;;;;;;5157357;27;20114;-77
2024/01/11 09:20:06;;;;;;;2.35;2.25;;;-2.50;99.90;;;;;;5157283;27;20296;-77
2024/01/11 09:22:31;;;;;;;1.60;1.50;;;-2.40;99.90;;;;;;5157520;27;20045;-77
2024/01/11 09:24:57;;;;;;;71.40;21.53;;;-2.00;99.90;;;;;;5157270;27;20117;-77
2024/01/11 09:27:22;;;;;;;1.50;1.40;;;-2.40;99.90;;;;;;5157147;27;20069;-77
2024/01/11 09:29:48;;;;;;;1.70;1.60;;;-2.40;99.90;;;;;;5156617;27;20127;-77
2024/01/11 09:32:14;;;;;;;8.88;8.20;;;-2.40;99.90;;;;;;5156819;27;20046;-77
2024/01/11 09:34:39;;;;;;;2.53;2.33;;;-2.30;99.90;;;;;;5156901;27;20039;-77
2024/01/11 09:37:05;;;;;;;1.50;1.40;;;-2.30;99.90;;;;;;5156790;27;20035;-76
2024/01/11 09:39:31;;;;;;;3.28;3.08;;;-2.30;99.90;;;;;;5156859;27;20062;-76
2024/01/11 09:42:12;;;;;;;1.50;1.40;;;-1.00;99.90;;;;;;5156812;27;20038;-79
2024/01/11 09:44:39;;;;;;;1.50;1.40;;;-2.20;99.90;;;;;;5138253;27;20067;-76
2024/01/11 09:47:08;;;;;;;2.95;2.75;;;-2.20;99.90;;;;;;5157067;27;20125;-79
2024/01/11 09:49:37;;;;;;;2.08;1.98;;;-2.20;99.90;;;;;;5156790;27;20046;-76
2024/01/11 09:52:05;;;;;;;2.05;1.95;;;-2.10;99.90;;;;;;5156680;27;20042;-76
2024/01/11 09:54:30;;;;;;;1.60;1.50;;;-2.10;99.90;;;;;;5156776;27;20115;-83
2024/01/11 09:56:59;;;;;;;1.70;1.60;;;-0.80;99.90;;;;;;5156577;27;20478;-75
2024/01/11 09:59:26;;;;;;;1.50;1.40;;;-2.00;99.90;;;;;;5156118;27;20042;-77
2024/01/11 10:01:52;;;;;;;1.40;1.30;;;-2.40;99.90;;;;;;5157039;27;20073;-77
2024/01/11 10:04:18;;;;;;;1.50;1.40;;;-1.80;99.90;;;;;;5156844;27;20047;-76
2024/01/11 10:06:48;;;;;;;2.57;2.37;;;-1.80;99.90;;;;;;5156520;27;20046;-77
2024/01/11 10:09:14;;;;;;;1.60;1.50;;;-1.80;99.90;;;;;;5156544;27;20359;-77
2024/01/11 10:11:39;;;;;;;1.40;1.30;;;-1.70;99.90;;;;;;5156450;27;20546;-77
2024/01/11 10:14:06;;;;;;;1.77;1.67;;;-1.70;99.90;;;;;;5156320;27;20047;-74
2024/01/11 10:16:32;;;;;;;1.50;1.40;;;-1.60;99.90;;;;;;5156333;27;20054;-76
2024/01/11 10:18:57;;;;;;;1.80;1.70;;;-1.60;99.90;;;;;;5156204;27;20049;-76
2024/01/11 10:21:23;;;;;;;1.30;1.20;;;-1.50;99.90;;;;;;5156131;27;20038;-75
2024/01/11 10:23:50;;;;;;;1.40;1.30;;;-1.50;99.90;;;;;;5155816;27;20046;-74
2024/01/11 10:26:16;;;;;;;1.40;1.30;;;-1.10;99.90;;;;;;5155735;27;20139;-76
2024/01/11 10:28:46;;;;;;;1.85;1.75;;;-1.40;99.90;;;;;;5156579;27;20126;-76
2024/01/11 10:31:12;;;;;;;1.70;1.60;;;-1.30;99.90;;;;;;5155401;27;20478;-75
2024/01/11 10:33:38;;;;;;;2.85;1.60;;;-1.30;99.90;;;;;;5136739;27;20495;-75
2024/01/11 10:36:04;;;;;;;2.03;1.48;;;-1.20;99.90;;;;;;5155665;27;20125;-74
2024/01/11 10:38:32;;;;;;;1.30;1.20;;;-1.20;99.90;;;;;;5155594;27;20038;-72
2024/01/11 10:41:00;;;;;;;4.53;2.45;;;-1.00;99.90;;;;;;5155675;27;20043;-74
2024/01/11 10:43:27;;;;;;;1.30;1.20;;;-1.10;99.90;;;;;;5137303;27;20043;-74
2024/01/11 10:45:59;;;;;;;4.85;4.40;;;-1.10;99.90;;;;;;5155590;27;20045;-75
2024/01/11 10:48:25;;;;;;;1.50;1.40;;;-1.00;99.90;;;;;;5155335;27;20034;-74
2024/01/11 10:51:01;;;;;;;1.30;1.20;;;-1.00;99.90;;;;;;5155846;27;20458;-76
2024/01/11 10:53:45;;;;;;;1.30;1.20;;;-0.90;99.90;;;;;;5155517;27;20080;-74
2024/01/11 10:56:12;;;;;;;5.88;4.65;;;-0.90;99.90;;;;;;5155843;27;20051;-74
2024/01/11 10:58:40;;;;;;;1.30;1.20;;;-0.90;99.90;;;;;;5155426;27;20067;-74
2024/01/11 11:01:07;;;;;;;2.05;1.90;;;-0.80;99.90;;;;;;5155511;27;20060;-73
2024/01/11 11:03:44;;;;;;;3.63;3.33;;;-0.80;99.90;;;;;;5155180;27;20456;-79
2024/01/11 11:06:12;;;;;;;1.50;1.40;;;-0.70;99.90;;;;;;5120844;27;20280;-76
2024/01/11 11:08:39;;;;;;;1.50;1.40;;;-0.70;99.90;;;;;;5155342;27;20485;-77
2024/01/11 11:11:06;;;;;;;;;;;-0.60;99.90;;;;;;5155977;27;20035;-76
2024/01/11 11:13:32;;;;;;;1.27;1.17;;;-0.60;99.90;;;;;;5155349;27;19922;-78
2024/01/11 11:15:58;;;;;;;1.40;1.30;;;-0.60;99.90;;;;;;5155863;27;20034;-78
2024/01/11 11:18:24;;;;;;;1.40;1.30;;;1.30;99.90;;;;;;5155619;27;20041;-76
2024/01/11 11:20:51;;;;;;;9.20;3.38;;;-0.50;99.90;;;;;;5155493;27;20050;-73
2024/01/11 11:23:18;;;;;;;2.92;2.72;;;-0.50;99.90;;;;;;5159566;27;20453;-75
2024/01/11 11:25:49;;;;;;;2.17;2.08;;;0.10;99.90;;;;;;5140821;27;20106;-74
2024/01/11 11:28:16;;;;;;;1.42;1.33;;;-0.50;99.90;;;;;;5155445;27;20043;-73
2024/01/11 11:30:43;;;;;;;1.30;1.20;;;-0.40;99.90;;;;;;5155481;27;20077;-74
2024/01/11 11:33:18;;;;;;;2.22;2.13;;;-0.40;99.90;;;;;;5155091;27;20461;-78
2024/01/11 11:35:46;;;;;;;1.40;1.30;;;-0.40;99.90;;;;;;5154947;27;20046;-74
2024/01/11 11:38:25;;;;;;;1.30;1.20;;;-0.30;99.90;;;;;;5155261;27;20420;-74
2024/01/11 11:40:52;;;;;;;1.30;1.20;;;-0.30;99.90;;;;;;5155073;27;20053;-73
2024/01/11 11:43:20;;;;;;;1.40;1.30;;;-0.20;99.90;;;;;;5155637;27;20047;-72
2024/01/11 11:45:48;;;;;;;1.67;1.58;;;-0.20;99.90;;;;;;5158965;27;20042;-73
2024/01/11 11:48:39;;;;;;;2.40;2.08;;;-0.20;99.90;;;;;;5158798;27;20485;-72
2024/01/11 11:51:10;;;;;;;2.42;1.77;;;-0.20;99.90;;;;;;5159117;27;20050;-73
2024/01/11 11:53:37;;;;;;;1.30;1.20;;;-0.10;99.90;;;;;;5140423;27;20050;-72
2024/01/11 11:56:03;;;;;;;1.73;1.63;;;-0.10;99.90;;;;;;5158658;27;20043;-73
2024/01/11 11:58:33;;;;;;;1.47;1.37;;;0.00;99.90;;;;;;5158947;27;20480;-80
2024/01/11 12:01:00;;;;;;;2.15;1.95;;;0.10;99.90;;;;;;5159410;27;20045;-77
2024/01/11 12:03:31;;;;;;;1.40;1.30;;;0.10;99.90;;;;;;5159115;27;20038;-78
2024/01/11 12:05:58;;;;;;;1.60;1.50;;;0.10;99.90;;;;;;5158592;27;20083;-74
2024/01/11 12:08:24;;;;;;;;;;;0.20;99.90;;;;;;5158881;27;20087;-70
2024/01/11 12:10:51;;;;;;;1.65;1.40;;;0.20;99.90;;;;;;5139925;27;20323;-70
2024/01/11 12:13:17;;;;;;;;;;;0.30;99.90;;;;;;5158821;27;20046;-71
2024/01/11 12:15:42;;;;;;;1.50;1.40;;;0.30;99.90;;;;;;5158375;27;19923;-75
2024/01/11 12:18:08;;;;;;;2.45;2.22;;;0.40;99.90;;;;;;5158546;27;20042;-74
2024/01/11 12:20:34;;;;;;;1.20;1.10;;;0.40;99.90;;;;;;5157980;27;20042;-75
2024/01/11 12:23:02;;;;;;;1.33;1.23;;;0.40;99.90;;;;;;5157864;27;20039;-74
2024/01/11 12:25:28;;;;;;;1.50;1.38;;;0.90;99.90;;;;;;5158002;27;20394;-75
2024/01/11 12:27:53;;;;;;;1.50;1.40;;;0.50;99.90;;;;;;5155810;27;20043;-75
2024/01/11 12:30:21;;;;;;;1.30;1.20;;;0.50;99.90;;;;;;5156171;27;20091;-75
2024/01/11 12:32:47;;;;;;;1.67;1.58;;;0.50;99.90;;;;;;5156510;27;20087;-74
2024/01/11 12:35:13;;;;;;;1.30;1.20;;;0.40;99.90;;;;;;5156329;27;20088;-75
2024/01/11 12:37:39;;;;;;;1.30;1.20;;;0.40;99.90;;;;;;5158037;27;20424;-75
2024/01/11 12:40:06;;;;;;;1.50;1.40;;;0.40;99.90;;;;;;5157972;27;20050;-75
2024/01/11 12:42:34;;;;;;;;;;;0.40;99.90;;;;;;5158264;27;20178;-75
2024/01/11 12:45:00;;;;;;;1.63;1.52;;;0.40;99.90;;;;;;5157793;27;20417;-74
2024/01/11 12:47:26;;;;;;;1.65;1.55;;;0.40;99.90;;;;;;5157780;27;20107;-74